Time;durP1;ratioP1;P1;durP2;ratioP2;P2;SDS_P1;SDS_P2;PMS_P1;PMS_P2;Temp;Humidity;BMP_temperature;BMP_pressure;BME280_temperature;BME280_humidity;BME280_pressure;Samples;Min_cycle;Max_cycle;Signal;HPM_P1;HPM_P2
2023/12/31 00:01:55;;;;;;;5.70;1.95;;;8.80;99.90;;;;;;5081169;28;20032;-80
2023/12/31 00:04:20;;;;;;;7.35;2.10;;;8.80;99.90;;;;;;5106141;27;20080;-80
2023/12/31 00:06:46;;;;;;;5.38;1.88;;;8.80;99.90;;;;;;5093399;27;20034;-80
2023/12/31 00:09:12;;;;;;;4.10;1.80;;;8.80;99.90;;;;;;5113410;27;20159;-80
2023/12/31 00:11:37;;;;;;;5.45;2.10;;;8.70;99.90;;;;;;5107099;27;20050;-79
2023/12/31 00:14:03;;;;;;;6.63;2.17;;;8.70;99.90;;;;;;5105759;27;20135;-80
2023/12/31 00:16:28;;;;;;;6.72;2.08;;;8.70;99.90;;;;;;5116503;27;20035;-80
2023/12/31 00:18:54;;;;;;;3.50;1.67;;;8.70;99.90;;;;;;5095112;28;20028;-80
2023/12/31 00:21:20;;;;;;;5.18;2.00;;;8.70;99.90;;;;;;5094032;28;20077;-80
2023/12/31 00:23:45;;;;;;;4.97;2.30;;;8.70;99.90;;;;;;5110765;27;20039;-80
2023/12/31 00:26:11;;;;;;;6.25;2.03;;;8.70;99.90;;;;;;5096135;28;20043;-80
2023/12/31 00:28:36;;;;;;;5.60;1.70;;;8.60;99.90;;;;;;5096746;28;20076;-80
2023/12/31 00:31:02;;;;;;;4.32;2.00;;;8.60;99.90;;;;;;5113292;27;20084;-80
2023/12/31 00:33:28;;;;;;;5.18;2.15;;;8.60;99.90;;;;;;5112948;28;20040;-80
2023/12/31 00:35:53;;;;;;;6.97;2.30;;;8.60;99.90;;;;;;5095155;28;20034;-80
2023/12/31 00:38:19;;;;;;;4.85;1.90;;;8.50;99.90;;;;;;5112758;28;20043;-80
2023/12/31 00:40:45;;;;;;;5.65;1.98;;;8.60;99.90;;;;;;5112750;27;20042;-80
2023/12/31 00:43:10;;;;;;;4.47;2.05;;;8.60;99.90;;;;;;5147917;27;20046;-80
2023/12/31 00:45:36;;;;;;;7.07;1.92;;;8.60;99.90;;;;;;5112342;28;20036;-80
2023/12/31 00:48:02;;;;;;;4.03;1.80;;;8.60;99.90;;;;;;5096094;28;20040;-80
2023/12/31 00:50:27;;;;;;;5.65;2.08;;;8.60;99.90;;;;;;5094666;28;20496;-80
2023/12/31 00:52:53;;;;;;;3.78;1.95;;;8.50;99.90;;;;;;5145850;27;20035;-79
2023/12/31 00:55:18;;;;;;;6.38;2.20;;;8.50;99.90;;;;;;5095244;28;20126;-80
2023/12/31 00:57:44;;;;;;;4.32;1.90;;;8.50;99.90;;;;;;5095433;28;20543;-80
2023/12/31 01:00:10;;;;;;;4.25;1.75;;;8.50;99.90;;;;;;5111555;28;20039;-80
2023/12/31 01:02:36;;;;;;;4.28;1.67;;;8.50;99.90;;;;;;5147340;27;20040;-80
2023/12/31 01:05:02;;;;;;;5.13;1.83;;;8.50;99.90;;;;;;5146938;27;20535;-80
2023/12/31 01:07:27;;;;;;;3.33;1.77;;;8.50;99.90;;;;;;5112440;28;20043;-80
2023/12/31 01:09:53;;;;;;;4.85;1.83;;;8.50;99.90;;;;;;5111767;28;20441;-80
2023/12/31 01:12:18;;;;;;;4.13;1.77;;;8.60;99.90;;;;;;5095589;28;20078;-80
2023/12/31 01:14:45;;;;;;;5.45;1.90;;;8.60;99.90;;;;;;5111690;28;20122;-80
2023/12/31 01:17:11;;;;;;;3.85;1.80;;;8.60;99.90;;;;;;5128890;27;20481;-80
2023/12/31 01:19:37;;;;;;;4.13;1.55;;;8.60;99.90;;;;;;5110830;28;20123;-80
2023/12/31 01:22:02;;;;;;;4.22;1.60;;;8.70;99.90;;;;;;5095435;28;20365;-80
2023/12/31 01:24:29;;;;;;;6.40;1.83;;;8.70;99.90;;;;;;5129688;27;20494;-80
2023/12/31 01:26:55;;;;;;;3.90;1.55;;;8.60;99.90;;;;;;5128423;27;20114;-80
2023/12/31 01:29:21;;;;;;;3.55;1.40;;;8.60;99.90;;;;;;5145633;27;20127;-80
2023/12/31 01:31:46;;;;;;;4.68;1.88;;;8.60;99.90;;;;;;5109483;28;20038;-80
2023/12/31 01:34:12;;;;;;;5.75;2.00;;;8.70;99.90;;;;;;5129870;27;20051;-80
2023/12/31 01:36:38;;;;;;;4.13;1.75;;;8.70;99.90;;;;;;5109272;28;20036;-80
2023/12/31 01:39:03;;;;;;;2.92;1.77;;;8.60;99.90;;;;;;5112355;28;20082;-81
2023/12/31 01:41:29;;;;;;;3.72;1.40;;;8.70;99.90;;;;;;5108532;28;20040;-80
2023/12/31 01:44:03;;;;;;;2.55;1.20;;;8.70;99.90;;;;;;5129471;28;20068;-81
2023/12/31 01:46:31;;;;;;;3.92;1.63;;;8.80;99.90;;;;;;5127254;28;20076;-81
2023/12/31 01:48:58;;;;;;;3.90;1.58;;;8.70;99.90;;;;;;5127932;28;20373;-81
2023/12/31 01:51:25;;;;;;;4.50;1.58;;;8.80;99.90;;;;;;5110495;28;20115;-80
2023/12/31 01:53:51;;;;;;;3.88;1.80;;;8.90;99.90;;;;;;5127110;28;20043;-80
2023/12/31 01:56:19;;;;;;;3.75;1.42;;;8.80;99.90;;;;;;5111859;28;20058;-81
2023/12/31 01:58:45;;;;;;;3.00;1.27;;;8.80;99.90;;;;;;5094043;28;20098;-80
2023/12/31 02:01:11;;;;;;;2.15;1.20;;;8.70;99.90;;;;;;5109093;28;20036;-80
2023/12/31 02:03:36;;;;;;;3.47;1.40;;;8.90;99.90;;;;;;5111241;28;20424;-81
2023/12/31 02:06:02;;;;;;;3.50;1.40;;;8.90;99.90;;;;;;5095269;28;20043;-81
2023/12/31 02:08:28;;;;;;;4.90;1.55;;;8.90;99.90;;;;;;5094270;28;20035;-81
2023/12/31 02:10:55;;;;;;;4.60;1.30;;;9.00;99.90;;;;;;5110511;28;20050;-81
2023/12/31 02:13:21;;;;;;;5.63;1.80;;;8.90;99.90;;;;;;5111151;28;20513;-81
2023/12/31 02:15:46;;;;;;;2.85;1.13;;;9.00;99.90;;;;;;5145545;27;20063;-81
2023/12/31 02:18:12;;;;;;;3.13;1.42;;;9.00;99.90;;;;;;5094712;28;20040;-81
2023/12/31 02:20:38;;;;;;;3.40;1.23;;;9.00;99.90;;;;;;5109342;28;20036;-81
2023/12/31 02:23:03;;;;;;;4.32;1.98;;;8.90;99.90;;;;;;5110458;28;20039;-81
2023/12/31 02:25:30;;;;;;;5.28;1.77;;;9.00;99.90;;;;;;5129101;27;20047;-81
2023/12/31 02:27:56;;;;;;;3.35;1.35;;;9.00;99.90;;;;;;5128957;27;20219;-81
2023/12/31 02:30:23;;;;;;;4.10;1.60;;;8.90;99.90;;;;;;5114515;27;20054;-81
2023/12/31 02:32:48;;;;;;;3.65;1.45;;;8.90;99.90;;;;;;5147325;27;20048;-81
2023/12/31 02:35:14;;;;;;;4.40;1.55;;;9.10;99.90;;;;;;5115851;28;20042;-81
2023/12/31 02:37:40;;;;;;;5.38;1.70;;;9.10;99.90;;;;;;5147354;27;20040;-81
2023/12/31 02:40:06;;;;;;;4.25;1.45;;;9.10;99.90;;;;;;5114899;28;20486;-81
2023/12/31 02:42:32;;;;;;;6.90;1.80;;;9.00;99.90;;;;;;5128327;27;20041;-81
2023/12/31 02:44:57;;;;;;;4.70;1.50;;;9.00;99.90;;;;;;5132489;27;20134;-81
2023/12/31 02:47:23;;;;;;;2.92;1.33;;;9.00;99.90;;;;;;5098932;27;20040;-81
2023/12/31 02:49:49;;;;;;;3.45;1.40;;;8.90;99.90;;;;;;5117617;27;20073;-81
2023/12/31 02:52:15;;;;;;;2.05;1.20;;;8.90;99.90;;;;;;5129139;27;20531;-80
2023/12/31 02:54:41;;;;;;;0.50;0.50;;;9.00;99.90;;;;;;5114601;28;20403;-81
2023/12/31 02:57:07;;;;;;;3.53;1.38;;;8.90;99.90;;;;;;5131065;27;20038;-80
2023/12/31 02:59:36;;;;;;;4.93;2.00;;;8.90;99.90;;;;;;5097350;28;20043;-81
2023/12/31 03:02:02;;;;;;;2.90;1.02;;;8.80;99.90;;;;;;5096940;28;20042;-80
2023/12/31 03:04:28;;;;;;;3.95;1.50;;;8.80;99.90;;;;;;5148660;27;20028;-80
2023/12/31 03:06:53;;;;;;;3.22;1.70;;;8.90;99.90;;;;;;5149498;27;20068;-81
2023/12/31 03:09:22;;;;;;;4.07;1.55;;;8.90;99.90;;;;;;5127885;27;20050;-81
2023/12/31 03:11:50;;;;;;;4.10;1.52;;;8.80;99.90;;;;;;5110796;27;20113;-80
2023/12/31 03:14:16;;;;;;;3.67;1.20;;;8.90;99.90;;;;;;5101888;28;20404;-81
2023/12/31 03:16:46;;;;;;;3.88;1.45;;;8.80;99.90;;;;;;5114998;28;20043;-80
2023/12/31 03:19:12;;;;;;;2.72;1.20;;;8.80;99.90;;;;;;5113457;27;20128;-81
2023/12/31 03:21:38;;;;;;;4.70;1.20;;;8.80;99.90;;;;;;5147827;27;20043;-81
2023/12/31 03:24:04;;;;;;;2.17;0.77;;;8.80;99.90;;;;;;5095094;28;20395;-81
2023/12/31 03:26:29;;;;;;;2.08;1.10;;;8.90;99.90;;;;;;5096844;28;20077;-81
2023/12/31 03:28:55;;;;;;;1.88;0.77;;;8.80;99.90;;;;;;5097622;28;20043;-81
2023/12/31 03:31:21;;;;;;;1.38;0.70;;;8.80;99.90;;;;;;5095024;28;20450;-81
2023/12/31 03:33:46;;;;;;;3.00;1.25;;;8.90;99.90;;;;;;5097503;28;20051;-81
2023/12/31 03:36:12;;;;;;;1.73;0.98;;;8.80;99.90;;;;;;5112491;28;20036;-81
2023/12/31 03:38:37;;;;;;;1.95;1.10;;;8.80;99.90;;;;;;5145072;27;20441;-81
2023/12/31 03:41:04;;;;;;;3.97;1.67;;;8.80;99.90;;;;;;5096747;28;20038;-81
2023/12/31 03:43:30;;;;;;;4.65;1.27;;;8.80;99.90;;;;;;5113897;27;20047;-81
2023/12/31 03:45:57;;;;;;;3.63;1.17;;;8.80;99.90;;;;;;5090450;28;20032;-80
2023/12/31 03:48:23;;;;;;;2.85;1.27;;;8.80;99.90;;;;;;5097763;27;20039;-81
2023/12/31 03:50:49;;;;;;;3.42;1.20;;;8.80;99.90;;;;;;5095482;28;20047;-81
2023/12/31 03:53:15;;;;;;;1.83;1.10;;;8.80;99.90;;;;;;5114308;28;20036;-81
2023/12/31 03:55:41;;;;;;;2.47;1.23;;;8.70;99.90;;;;;;5109970;28;20169;-81
2023/12/31 03:58:07;;;;;;;3.10;1.17;;;8.80;99.90;;;;;;5096795;28;20062;-80
2023/12/31 04:00:33;;;;;;;2.05;1.00;;;8.80;99.90;;;;;;5095798;27;20422;-80
2023/12/31 04:02:58;;;;;;;2.55;1.25;;;8.80;99.90;;;;;;5114308;28;20522;-81
2023/12/31 04:05:24;;;;;;;3.83;1.20;;;8.80;99.90;;;;;;5111590;28;20063;-81
2023/12/31 04:07:50;;;;;;;3.78;1.20;;;8.80;99.90;;;;;;5096505;28;20031;-81
2023/12/31 04:10:16;;;;;;;4.05;1.05;;;8.70;99.90;;;;;;5112705;28;20118;-81
2023/12/31 04:12:41;;;;;;;2.97;1.33;;;8.70;99.90;;;;;;5128537;27;20236;-81
2023/12/31 04:15:08;;;;;;;2.83;1.20;;;8.70;99.90;;;;;;5112904;27;20039;-81
2023/12/31 04:17:34;;;;;;;0.98;0.68;;;8.70;99.90;;;;;;5094214;28;20031;-80
2023/12/31 04:20:00;;;;;;;3.95;1.40;;;8.60;99.90;;;;;;5129047;27;20042;-81
2023/12/31 04:22:26;;;;;;;4.80;1.17;;;8.70;99.90;;;;;;5113651;28;20043;-81
2023/12/31 04:24:51;;;;;;;3.13;1.10;;;8.60;99.90;;;;;;5110973;27;20035;-81
2023/12/31 04:27:18;;;;;;;1.95;0.98;;;8.70;99.90;;;;;;5111260;28;20403;-81
2023/12/31 04:29:44;;;;;;;2.70;1.35;;;8.70;99.90;;;;;;5109474;28;20114;-81
2023/12/31 04:32:10;;;;;;;2.35;1.05;;;8.70;99.90;;;;;;5096376;28;20532;-80
2023/12/31 04:34:35;;;;;;;2.90;1.50;;;8.70;99.90;;;;;;5095769;28;20126;-80
2023/12/31 04:37:01;;;;;;;3.70;1.10;;;8.80;99.90;;;;;;5093614;28;20032;-81
2023/12/31 04:39:26;;;;;;;3.25;1.42;;;8.80;99.90;;;;;;5094584;28;20040;-80
2023/12/31 04:41:54;;;;;;;1.90;1.13;;;8.70;99.90;;;;;;5095312;28;20032;-81
2023/12/31 04:44:19;;;;;;;1.70;1.00;;;8.80;99.90;;;;;;5096532;28;20430;-81
2023/12/31 04:46:45;;;;;;;3.47;1.50;;;8.70;99.90;;;;;;5111444;27;20043;-81
2023/12/31 04:49:14;;;;;;;1.83;1.10;;;8.70;99.90;;;;;;5092869;28;20035;-81
2023/12/31 04:51:40;;;;;;;1.90;1.20;;;8.80;99.90;;;;;;5113117;28;20042;-81
2023/12/31 04:54:06;;;;;;;2.50;1.20;;;8.70;99.90;;;;;;5128398;27;20039;-81
2023/12/31 04:56:33;;;;;;;3.00;1.08;;;8.80;99.90;;;;;;5096153;28;20060;-81
2023/12/31 04:58:59;;;;;;;2.75;1.58;;;8.70;99.90;;;;;;5133087;27;20066;-81
2023/12/31 05:01:31;;;;;;;2.40;1.23;;;8.70;99.90;;;;;;5147038;27;20074;-81
2023/12/31 05:03:58;;;;;;;2.35;1.30;;;8.60;99.90;;;;;;5145449;27;20142;-81
2023/12/31 05:06:25;;;;;;;1.85;0.95;;;8.70;99.90;;;;;;5129168;27;20114;-82
2023/12/31 05:08:50;;;;;;;3.08;1.33;;;8.70;99.90;;;;;;5142131;27;20129;-81
2023/12/31 05:11:16;;;;;;;3.75;1.15;;;8.70;99.90;;;;;;5092396;28;20568;-81
2023/12/31 05:13:43;;;;;;;2.90;1.50;;;8.80;99.90;;;;;;5144832;27;20039;-80
2023/12/31 05:16:13;;;;;;;3.15;1.13;;;8.70;99.90;;;;;;5112720;28;20504;-81
2023/12/31 05:18:45;;;;;;;5.88;2.03;;;8.70;99.90;;;;;;5109728;28;20047;-80
2023/12/31 05:21:12;;;;;;;;;;;8.70;99.90;;;;;;5144584;27;20088;-81
2023/12/31 05:23:38;;;;;;;2.80;1.42;;;8.80;99.90;;;;;;5095891;28;20319;-81
2023/12/31 05:26:04;;;;;;;2.35;1.15;;;8.70;99.90;;;;;;5092285;28;20044;-81
2023/12/31 05:28:29;;;;;;;3.90;1.45;;;8.80;99.90;;;;;;5128238;27;20070;-80
2023/12/31 05:30:55;;;;;;;3.17;1.55;;;8.80;99.90;;;;;;5109789;28;20032;-81
2023/12/31 05:33:21;;;;;;;2.97;1.23;;;8.80;99.90;;;;;;5095381;28;20054;-80
2023/12/31 05:35:46;;;;;;;2.03;1.20;;;8.80;99.90;;;;;;5111409;28;20042;-81
2023/12/31 05:38:12;;;;;;;4.43;1.50;;;8.80;99.90;;;;;;5109531;28;20108;-80
2023/12/31 05:40:37;;;;;;;3.85;1.75;;;8.80;99.90;;;;;;5094226;28;20120;-81
2023/12/31 05:43:03;;;;;;;3.00;1.60;;;8.70;99.90;;;;;;5093677;28;20502;-81
2023/12/31 05:45:29;;;;;;;4.38;1.48;;;8.80;99.90;;;;;;5094376;28;20039;-80
2023/12/31 05:47:55;;;;;;;4.30;1.88;;;8.80;99.90;;;;;;5094356;28;20035;-80
2023/12/31 05:50:20;;;;;;;5.03;1.60;;;8.80;99.90;;;;;;5110428;28;20052;-81
2023/12/31 05:52:46;;;;;;;4.28;1.70;;;8.80;99.90;;;;;;5110446;28;20515;-81
2023/12/31 05:55:12;;;;;;;1.75;1.33;;;8.80;99.90;;;;;;5111444;28;20498;-81
2023/12/31 05:57:39;;;;;;;2.70;1.25;;;8.80;99.90;;;;;;5143845;27;20411;-81
2023/12/31 06:00:06;;;;;;;3.75;1.83;;;8.90;99.90;;;;;;5108310;28;20035;-81
2023/12/31 06:02:32;;;;;;;1.55;1.05;;;8.80;99.90;;;;;;5116035;27;20415;-80
2023/12/31 06:04:57;;;;;;;2.83;1.48;;;8.90;99.90;;;;;;5097445;28;20039;-81
2023/12/31 06:07:23;;;;;;;3.80;1.70;;;8.80;99.90;;;;;;5097651;28;20142;-81
2023/12/31 06:09:49;;;;;;;3.03;1.67;;;8.80;99.90;;;;;;5114252;28;20036;-81
2023/12/31 06:12:15;;;;;;;3.60;1.50;;;8.90;99.90;;;;;;5123893;27;20061;-80
2023/12/31 06:14:40;;;;;;;3.75;1.50;;;8.90;99.90;;;;;;5110331;28;20066;-81
2023/12/31 06:17:06;;;;;;;4.55;1.73;;;8.90;99.90;;;;;;5132289;27;20035;-80
2023/12/31 06:19:33;;;;;;;3.90;1.75;;;8.80;99.90;;;;;;5098251;28;20038;-80
2023/12/31 06:21:59;;;;;;;3.58;1.65;;;8.80;99.90;;;;;;5131100;27;20248;-80
2023/12/31 06:24:24;;;;;;;6.38;2.17;;;9.00;99.90;;;;;;5148417;27;20035;-80
2023/12/31 06:26:50;;;;;;;2.80;1.63;;;8.90;99.90;;;;;;5115971;28;20035;-81
2023/12/31 06:29:15;;;;;;;3.22;1.35;;;8.90;99.90;;;;;;5129152;27;20082;-81
2023/12/31 06:31:41;;;;;;;4.85;1.90;;;9.00;99.90;;;;;;5114679;28;20054;-81
2023/12/31 06:34:07;;;;;;;3.72;1.80;;;8.90;99.90;;;;;;5113768;28;20028;-81
2023/12/31 06:36:32;;;;;;;1.70;1.08;;;8.90;99.90;;;;;;5116028;28;20124;-81
2023/12/31 06:38:58;;;;;;;5.15;1.90;;;8.90;99.90;;;;;;5096655;28;20512;-82
2023/12/31 06:41:24;;;;;;;4.43;1.45;;;9.00;99.90;;;;;;5096730;28;20083;-80
2023/12/31 06:43:50;;;;;;;5.88;2.60;;;9.00;99.90;;;;;;5114765;28;20199;-80
2023/12/31 06:46:15;;;;;;;3.35;1.80;;;9.00;99.90;;;;;;5098880;28;20385;-81
2023/12/31 06:48:41;;;;;;;4.38;1.50;;;9.00;99.90;;;;;;5096439;28;20043;-81
2023/12/31 06:51:07;;;;;;;4.07;1.63;;;9.00;99.90;;;;;;5113618;28;20031;-80
2023/12/31 06:53:35;;;;;;;4.68;1.90;;;9.00;99.90;;;;;;5097384;28;20127;-80
2023/12/31 06:56:08;;;;;;;3.15;1.55;;;9.00;99.90;;;;;;5114086;27;20048;-81
2023/12/31 06:58:36;;;;;;;3.42;1.85;;;9.10;99.90;;;;;;5098202;28;20488;-81
2023/12/31 07:01:02;;;;;;;4.05;1.58;;;9.00;99.90;;;;;;5111353;27;20385;-81
2023/12/31 07:03:28;;;;;;;4.85;1.63;;;9.00;99.90;;;;;;5114613;28;20515;-81
2023/12/31 07:05:54;;;;;;;3.22;1.50;;;8.90;99.90;;;;;;5095797;28;20035;-81
2023/12/31 07:08:19;;;;;;;4.82;2.10;;;8.90;99.90;;;;;;5115162;28;20071;-81
2023/12/31 07:10:45;;;;;;;5.43;2.30;;;8.90;99.90;;;;;;5112663;27;20488;-81
2023/12/31 07:13:10;;;;;;;2.92;1.58;;;9.00;99.90;;;;;;5095891;28;20069;-81
2023/12/31 07:15:36;;;;;;;3.70;1.80;;;9.00;99.90;;;;;;5096909;28;20042;-81
2023/12/31 07:18:05;;;;;;;4.28;1.88;;;9.00;99.90;;;;;;5098002;28;20085;-80
2023/12/31 07:20:31;;;;;;;4.38;1.88;;;9.00;99.90;;;;;;5115060;27;20036;-80
2023/12/31 07:22:57;;;;;;;3.45;1.50;;;9.00;99.90;;;;;;5094770;28;20041;-81
2023/12/31 07:25:28;;;;;;;2.00;1.08;;;9.00;99.90;;;;;;5097857;28;20071;-81
2023/12/31 07:27:56;;;;;;;4.57;1.70;;;9.00;99.90;;;;;;5112597;27;20035;-80
2023/12/31 07:30:22;;;;;;;3.83;1.70;;;9.00;99.90;;;;;;5097436;28;20560;-81
2023/12/31 07:32:48;;;;;;;2.53;1.33;;;9.00;99.90;;;;;;5143400;27;20039;-81
2023/12/31 07:35:13;;;;;;;3.40;1.65;;;9.00;99.90;;;;;;5114020;28;20032;-81
2023/12/31 07:37:39;;;;;;;3.63;1.60;;;9.10;99.90;;;;;;5113882;27;20039;-81
2023/12/31 07:40:07;;;;;;;4.72;2.15;;;9.10;99.90;;;;;;5112964;27;20102;-82
2023/12/31 07:42:34;;;;;;;4.20;2.00;;;8.90;99.90;;;;;;5144515;27;20077;-80
2023/12/31 07:44:59;;;;;;;3.72;2.08;;;9.10;99.90;;;;;;5095688;28;20514;-81
2023/12/31 07:47:25;;;;;;;3.67;1.70;;;9.10;99.90;;;;;;5097786;28;20039;-82
2023/12/31 07:49:51;;;;;;;3.63;1.80;;;9.10;99.90;;;;;;5111932;28;20067;-81
2023/12/31 07:52:17;;;;;;;2.60;1.33;;;9.10;99.90;;;;;;5112386;28;20043;-81
2023/12/31 07:54:43;;;;;;;2.53;1.33;;;9.10;99.90;;;;;;5126004;27;20040;-81
2023/12/31 07:57:09;;;;;;;6.15;1.38;;;9.10;99.90;;;;;;5113260;27;20046;-82
2023/12/31 07:59:35;;;;;;;5.38;2.00;;;9.10;99.90;;;;;;5128928;27;20055;-81
2023/12/31 08:02:03;;;;;;;2.70;1.33;;;9.10;99.90;;;;;;5095971;28;20031;-82
2023/12/31 08:04:29;;;;;;;3.53;1.83;;;9.20;99.90;;;;;;5111938;27;20031;-81
2023/12/31 08:06:54;;;;;;;3.42;1.70;;;9.20;99.90;;;;;;5094760;28;20042;-81
2023/12/31 08:09:20;;;;;;;4.65;2.30;;;9.20;99.90;;;;;;5087004;28;20118;-80
2023/12/31 08:11:46;;;;;;;3.10;1.70;;;9.20;99.90;;;;;;5095142;28;20044;-80
2023/12/31 08:14:12;;;;;;;2.60;1.23;;;9.20;99.90;;;;;;5087744;28;20035;-80
2023/12/31 08:16:38;;;;;;;3.08;1.50;;;9.10;99.90;;;;;;5122855;27;20035;-80
2023/12/31 08:19:04;;;;;;;4.45;1.55;;;9.10;99.90;;;;;;5078425;28;20122;-81
2023/12/31 08:21:30;;;;;;;4.20;1.75;;;9.20;99.90;;;;;;5104722;27;20039;-82
2023/12/31 08:23:56;;;;;;;3.70;1.80;;;9.10;99.90;;;;;;5094473;27;20492;-81
2023/12/31 08:26:22;;;;;;;3.20;1.45;;;9.10;99.90;;;;;;5103179;28;20124;-81
2023/12/31 08:28:48;;;;;;;3.25;1.58;;;9.20;99.90;;;;;;5107185;27;20059;-80
2023/12/31 08:31:15;;;;;;;3.70;1.80;;;9.20;99.90;;;;;;5102740;27;20173;-81
2023/12/31 08:33:41;;;;;;;3.53;1.58;;;9.20;99.90;;;;;;5123485;27;20024;-81
2023/12/31 08:36:07;;;;;;;4.40;1.77;;;9.30;99.90;;;;;;5112151;28;20032;-80
2023/12/31 08:38:33;;;;;;;2.92;1.70;;;9.30;99.90;;;;;;5095088;28;20067;-81
2023/12/31 08:40:59;;;;;;;2.78;1.65;;;9.20;99.90;;;;;;5092087;28;20085;-80
2023/12/31 08:43:25;;;;;;;2.65;1.67;;;9.20;99.90;;;;;;5123815;27;20488;-81
2023/12/31 08:45:51;;;;;;;5.43;2.33;;;9.20;99.90;;;;;;5084400;27;20063;-79
2023/12/31 08:48:17;;;;;;;3.25;1.77;;;9.30;99.90;;;;;;5086910;27;20051;-81
2023/12/31 08:50:46;;;;;;;4.47;2.08;;;9.30;99.90;;;;;;5105163;27;20032;-80
2023/12/31 08:53:12;;;;;;;2.63;1.10;;;9.30;99.90;;;;;;5087677;27;20034;-81
2023/12/31 08:55:38;;;;;;;3.97;2.22;;;9.30;99.90;;;;;;5116796;27;20374;-80
2023/12/31 08:58:04;;;;;;;3.25;1.33;;;9.30;99.90;;;;;;5082135;27;20062;-80
2023/12/31 09:00:32;;;;;;;3.97;1.65;;;9.30;99.90;;;;;;5108381;27;20047;-81
2023/12/31 09:02:59;;;;;;;3.70;1.52;;;9.40;99.90;;;;;;5107405;27;20065;-80
2023/12/31 09:05:25;;;;;;;1.52;1.05;;;9.30;99.90;;;;;;5091144;27;20039;-81
2023/12/31 09:07:51;;;;;;;5.32;1.90;;;9.40;99.90;;;;;;5090983;27;20066;-81
2023/12/31 09:10:17;;;;;;;3.28;1.38;;;9.30;99.90;;;;;;5107942;27;20043;-80
2023/12/31 09:12:42;;;;;;;4.35;1.77;;;9.30;99.90;;;;;;5124992;27;20424;-80
2023/12/31 09:15:08;;;;;;;2.70;1.55;;;9.40;99.90;;;;;;5109185;27;20625;-80
2023/12/31 09:17:35;;;;;;;2.88;1.80;;;9.40;99.90;;;;;;5107050;27;20435;-80
2023/12/31 09:20:05;;;;;;;3.95;2.00;;;9.40;99.90;;;;;;5112964;27;20169;-80
2023/12/31 09:22:31;;;;;;;3.17;1.38;;;9.50;99.90;;;;;;5090526;28;20039;-81
2023/12/31 09:24:57;;;;;;;3.72;1.63;;;9.50;99.90;;;;;;5109251;27;20435;-81
2023/12/31 09:27:22;;;;;;;3.38;1.65;;;9.50;99.90;;;;;;5112162;27;20053;-80
2023/12/31 09:29:48;;;;;;;2.08;1.20;;;9.50;99.90;;;;;;5104140;27;20027;-81
2023/12/31 09:32:14;;;;;;;4.30;1.48;;;9.40;99.90;;;;;;5101853;28;20400;-81
2023/12/31 09:34:40;;;;;;;3.70;1.67;;;9.60;99.90;;;;;;5089322;28;20621;-80
2023/12/31 09:37:05;;;;;;;4.28;2.20;;;9.50;99.90;;;;;;5104110;27;20555;-80
2023/12/31 09:39:31;;;;;;;2.17;1.10;;;9.60;99.90;;;;;;5100258;27;20451;-80
2023/12/31 09:42:01;;;;;;;4.95;2.33;;;9.60;99.90;;;;;;5103872;28;20040;-80
2023/12/31 09:44:27;;;;;;;4.70;1.70;;;9.60;99.90;;;;;;5126213;27;20043;-81
2023/12/31 09:47:09;;;;;;;3.65;1.85;;;9.60;99.90;;;;;;5090154;28;20088;-80
2023/12/31 09:49:36;;;;;;;3.80;1.92;;;9.60;99.90;;;;;;5093509;28;20071;-81
2023/12/31 09:52:03;;;;;;;3.45;1.73;;;9.60;99.90;;;;;;5084261;28;20054;-80
2023/12/31 09:54:32;;;;;;;4.60;1.80;;;9.60;99.90;;;;;;5094300;28;20423;-80
2023/12/31 09:56:58;;;;;;;4.47;2.30;;;9.60;99.90;;;;;;5101164;27;20031;-81
2023/12/31 09:59:28;;;;;;;6.45;2.55;;;9.60;99.90;;;;;;5083151;28;20136;-80
2023/12/31 10:01:57;;;;;;;5.30;2.20;;;9.60;99.90;;;;;;5119476;27;20043;-81
2023/12/31 10:04:23;;;;;;;3.92;1.80;;;9.70;99.90;;;;;;5121838;27;20060;-81
2023/12/31 10:06:50;;;;;;;3.83;1.88;;;9.70;99.90;;;;;;5118008;27;20717;-76
2023/12/31 10:09:20;;;;;;;3.92;1.50;;;9.70;99.90;;;;;;5128785;27;20118;-80
2023/12/31 10:11:47;;;;;;;3.35;1.63;;;9.80;99.90;;;;;;5093768;28;20050;-79
2023/12/31 10:14:12;;;;;;;3.88;1.70;;;9.80;99.90;;;;;;5109131;28;20047;-81
2023/12/31 10:16:43;;;;;;;5.22;1.85;;;9.80;99.90;;;;;;5120114;28;20085;-81
2023/12/31 10:19:12;;;;;;;4.30;2.10;;;9.90;99.90;;;;;;5122545;27;20040;-80
2023/12/31 10:21:39;;;;;;;4.30;1.90;;;9.80;99.90;;;;;;5096806;28;20449;-80
2023/12/31 10:24:05;;;;;;;5.05;2.05;;;9.90;99.90;;;;;;5100502;28;20054;-80
2023/12/31 10:26:31;;;;;;;4.55;2.22;;;9.80;99.90;;;;;;5114293;27;20191;-80
2023/12/31 10:28:57;;;;;;;5.32;1.85;;;9.90;99.90;;;;;;5086076;28;20046;-81
2023/12/31 10:31:24;;;;;;;2.95;1.48;;;9.90;99.90;;;;;;5090310;28;20043;-80
2023/12/31 10:33:50;;;;;;;5.20;2.35;;;9.90;99.90;;;;;;5112987;28;20071;-80
2023/12/31 10:36:22;;;;;;;6.78;1.90;;;10.00;99.90;;;;;;5109780;28;20047;-82
2023/12/31 10:38:50;;;;;;;4.55;2.13;;;10.00;99.90;;;;;;5090963;28;20039;-81
2023/12/31 10:41:20;;;;;;;5.72;2.97;;;10.00;99.90;;;;;;5087823;28;20048;-79
2023/12/31 10:43:47;;;;;;;1.98;1.25;;;10.10;99.90;;;;;;5111607;28;20480;-80
2023/12/31 10:46:14;;;;;;;4.47;2.17;;;10.00;99.90;;;;;;5140608;27;20582;-81
2023/12/31 10:48:50;;;;;;;4.10;1.90;;;10.10;99.90;;;;;;5103293;28;20050;-80
2023/12/31 10:51:22;;;;;;;2.75;1.48;;;10.10;99.90;;;;;;5117534;27;20077;-79
2023/12/31 10:53:58;;;;;;;7.25;2.10;;;10.10;99.90;;;;;;5128940;27;20039;-79
2023/12/31 10:56:25;;;;;;;5.20;2.22;;;10.10;99.90;;;;;;5115205;28;20036;-80
2023/12/31 10:58:54;;;;;;;7.07;2.70;;;10.20;99.90;;;;;;5114631;27;20115;-79
2023/12/31 11:01:22;;;;;;;3.85;1.88;;;10.10;99.90;;;;;;5099063;28;20044;-80
2023/12/31 11:03:48;;;;;;;3.05;1.50;;;10.10;99.90;;;;;;5114611;28;20036;-79
2023/12/31 11:06:16;;;;;;;6.95;2.42;;;10.20;99.90;;;;;;5098229;28;20048;-79
2023/12/31 11:08:45;;;;;;;3.97;1.92;;;10.20;99.90;;;;;;5113630;28;20043;-79
2023/12/31 11:11:11;;;;;;;4.03;1.98;;;10.20;99.90;;;;;;5097038;28;20126;-79
2023/12/31 11:13:40;;;;;;;3.88;1.42;;;10.20;99.90;;;;;;5104818;27;20031;-79
2023/12/31 11:16:14;;;;;;;6.07;2.38;;;10.20;99.90;;;;;;5125229;27;20111;-80
2023/12/31 11:19:14;;;;;;;5.22;2.00;;;10.20;99.90;;;;;;5130509;27;20044;-79
2023/12/31 11:22:19;;;;;;;4.65;2.47;;;10.10;99.90;;;;;;5104084;28;20035;-79
2023/12/31 11:24:46;;;;;;;6.60;2.10;;;10.10;99.90;;;;;;5111836;27;20036;-78
2023/12/31 11:27:15;;;;;;;6.05;2.88;;;10.00;99.90;;;;;;5083106;27;20085;-79
2023/12/31 11:29:43;;;;;;;4.38;2.17;;;9.90;99.90;;;;;;5093329;27;20043;-79
2023/12/31 11:32:09;;;;;;;5.43;2.55;;;9.90;99.90;;;;;;5104733;27;20050;-79
2023/12/31 11:34:39;;;;;;;6.93;2.53;;;9.80;99.90;;;;;;5093234;27;20043;-78
2023/12/31 11:37:08;;;;;;;4.82;2.35;;;9.70;99.90;;;;;;5090328;27;20039;-79
2023/12/31 11:39:34;;;;;;;5.85;2.58;;;9.70;99.90;;;;;;5097497;27;20031;-79
2023/12/31 11:42:11;;;;;;;6.40;2.78;;;9.80;99.90;;;;;;5111696;27;20506;-79
2023/12/31 11:44:43;;;;;;;4.55;2.25;;;9.80;99.90;;;;;;5099617;27;20058;-78
2023/12/31 11:47:16;;;;;;;5.23;2.80;;;9.80;99.90;;;;;;5113983;27;20037;-79
2023/12/31 11:49:46;;;;;;;4.25;1.80;;;9.80;99.90;;;;;;5084625;27;20127;-79
2023/12/31 11:52:12;;;;;;;4.15;1.92;;;9.80;99.90;;;;;;5116816;27;20061;-79
2023/12/31 11:54:39;;;;;;;2.60;1.33;;;9.80;99.90;;;;;;5097710;27;20028;-79
2023/12/31 11:57:13;;;;;;;2.22;1.20;;;9.70;99.90;;;;;;5122386;27;21064;-78
2023/12/31 11:59:42;;;;;;;2.83;0.93;;;9.70;99.90;;;;;;5082523;27;20059;-78
2023/12/31 12:02:08;;;;;;;2.40;1.38;;;9.60;99.90;;;;;;5079535;27;20050;-78
2023/12/31 12:04:38;;;;;;;3.90;1.50;;;9.50;99.90;;;;;;5115260;27;20036;-78
2023/12/31 12:07:04;;;;;;;3.58;1.67;;;9.50;99.90;;;;;;5071996;28;20131;-78
2023/12/31 12:09:31;;;;;;;1.65;0.88;;;9.40;99.90;;;;;;5091855;27;20043;-79
2023/12/31 12:12:02;;;;;;;4.30;1.20;;;9.30;99.90;;;;;;5112532;27;20487;-78
2023/12/31 12:14:29;;;;;;;1.88;0.85;;;9.30;99.90;;;;;;5091211;27;20048;-79
2023/12/31 12:16:55;;;;;;;3.78;0.88;;;9.30;99.90;;;;;;5147005;27;20085;-79
2023/12/31 12:19:22;;;;;;;3.00;0.65;;;9.30;99.90;;;;;;5141373;27;20031;-79
2023/12/31 12:21:48;;;;;;;1.30;0.57;;;9.20;99.90;;;;;;5107046;28;20036;-79
2023/12/31 12:24:15;;;;;;;2.50;0.63;;;9.10;99.90;;;;;;5112554;28;20040;-79
2023/12/31 12:26:41;;;;;;;2.47;0.60;;;9.10;99.90;;;;;;5113887;28;20066;-79
2023/12/31 12:29:09;;;;;;;2.22;0.68;;;8.90;99.90;;;;;;5111210;28;20484;-79
2023/12/31 12:31:36;;;;;;;3.33;0.80;;;8.90;99.90;;;;;;5093923;27;20040;-79
2023/12/31 12:34:04;;;;;;;2.42;0.90;;;8.90;99.90;;;;;;5117905;27;20044;-79
2023/12/31 12:36:31;;;;;;;2.15;0.88;;;8.90;99.90;;;;;;5116209;27;20043;-79
2023/12/31 12:39:02;;;;;;;2.05;0.90;;;9.00;99.90;;;;;;5101678;27;20066;-79
2023/12/31 12:41:31;;;;;;;4.00;1.70;;;8.90;99.90;;;;;;5123898;27;20036;-80
2023/12/31 12:44:02;;;;;;;4.53;2.22;;;9.10;99.90;;;;;;5112927;27;20325;-80
2023/12/31 12:46:30;;;;;;;4.28;2.15;;;9.10;99.90;;;;;;5146636;27;20527;-79
2023/12/31 12:48:57;;;;;;;2.65;1.42;;;9.20;99.90;;;;;;5096485;28;20372;-79
2023/12/31 12:51:23;;;;;;;2.60;1.10;;;9.20;99.90;;;;;;5126640;27;20031;-79
2023/12/31 12:53:50;;;;;;;1.90;0.93;;;9.20;99.90;;;;;;5112326;27;20048;-79
2023/12/31 12:56:16;;;;;;;2.60;1.10;;;9.30;99.90;;;;;;5118112;27;20032;-79